createdAt,value
2022-09-18T00:03:05.493Z,46.73
2022-09-18T00:08:11.416Z,46.93
2022-09-18T00:13:17.660Z,46.92
2022-09-18T00:18:22.908Z,46.75
2022-09-18T00:23:28.472Z,46.50
2022-09-18T00:28:35.342Z,46.48
2022-09-18T00:33:41.629Z,45.67
2022-09-18T00:38:48.538Z,46.07
2022-09-18T00:43:56.986Z,46.53
2022-09-18T00:49:04.925Z,46.37
2022-09-18T00:54:18.073Z,45.73
2022-09-18T00:59:28.954Z,46.48
2022-09-18T01:04:34.208Z,46.60
2022-09-18T01:09:58.213Z,46.60
2022-09-18T01:15:12.252Z,46.20
2022-09-18T01:20:42.488Z,46.47
2022-09-18T01:26:10.932Z,46.47
2022-09-18T01:31:25.275Z,46.27
2022-09-18T01:36:34.164Z,46.15
2022-09-18T01:41:41.577Z,46.57
2022-09-18T01:46:48.542Z,46.13
2022-09-18T01:52:05.695Z,46.50
2022-09-18T02:02:36.473Z,45.97
2022-09-18T02:07:44.921Z,46.20
2022-09-18T02:12:51.589Z,46.30
2022-09-18T02:18:04.460Z,46.58
2022-09-18T02:23:09.989Z,45.83
2022-09-18T02:28:18.667Z,46.53
2022-09-18T02:33:29.755Z,46.23
2022-09-18T02:38:41.964Z,45.90
2022-09-18T02:44:02.192Z,46.60
2022-09-18T02:49:24.714Z,46.53
2022-09-18T02:54:48.722Z,46.13
2022-09-18T02:59:56.749Z,46.00
2022-09-18T03:05:01.558Z,45.87
2022-09-18T03:10:09.500Z,46.13
2022-09-18T03:15:15.345Z,46.03
2022-09-18T03:20:20.489Z,45.67
2022-09-18T03:25:26.205Z,33.10
2022-09-18T03:30:31.383Z,45.80
2022-09-18T03:35:36.355Z,45.87
2022-09-18T03:40:47.670Z,45.40
2022-09-18T03:45:53.983Z,45.37
2022-09-18T03:50:59.596Z,45.90
2022-09-18T03:56:05.261Z,44.87
2022-09-18T04:01:12.018Z,46.00
2022-09-18T04:11:21.874Z,45.60
2022-09-18T04:16:27.179Z,45.83
2022-09-18T04:21:32.674Z,45.87
2022-09-18T04:26:37.676Z,45.60
2022-09-18T04:31:43.944Z,45.60
2022-09-18T04:36:49.321Z,45.87
2022-09-18T04:41:54.718Z,45.97
2022-09-18T04:47:00.034Z,46.13
2022-09-18T04:52:05.379Z,45.90
2022-09-18T04:57:10.304Z,45.83
2022-09-18T05:02:15.383Z,45.93
2022-09-18T05:07:20.391Z,45.63
2022-09-18T05:12:25.600Z,45.28
2022-09-18T05:17:31.413Z,46.47
2022-09-18T05:27:41.557Z,45.27
2022-09-18T05:32:48.428Z,46.03
2022-09-18T05:37:54.315Z,45.57
2022-09-18T05:43:00.761Z,45.92
2022-09-18T05:48:07.771Z,44.70
2022-09-18T05:53:17.278Z,45.33
2022-09-18T05:58:22.696Z,45.33
2022-09-18T06:03:28.322Z,45.45
2022-09-18T06:08:34.016Z,45.37
2022-09-18T06:13:39.632Z,45.27
2022-09-18T06:23:50.014Z,45.03
2022-09-18T06:28:55.308Z,44.60
2022-09-18T06:34:00.521Z,44.90
2022-09-18T06:39:08.076Z,44.70
2022-09-18T06:44:14.150Z,44.90
2022-09-18T06:49:21.238Z,44.67
2022-09-18T06:54:26.099Z,45.17
2022-09-18T06:59:31.943Z,45.23
2022-09-18T07:04:37.689Z,45.57
2022-09-18T07:09:43.714Z,45.10
2022-09-18T07:14:49.254Z,44.67
2022-09-18T07:19:54.113Z,45.10
2022-09-18T07:24:59.170Z,45.33
2022-09-18T07:30:05.988Z,46.33
2022-09-18T07:35:12.504Z,45.13
2022-09-18T07:40:19.322Z,45.90
2022-09-18T07:45:24.867Z,45.40
2022-09-18T07:50:30.385Z,45.40
2022-09-18T07:55:38.405Z,46.23
2022-09-18T08:00:45.270Z,45.73
2022-09-18T08:05:51.038Z,45.83
2022-09-18T08:10:59.734Z,46.37
2022-09-18T08:16:11.633Z,46.70
2022-09-18T08:21:19.760Z,46.37
2022-09-18T08:26:28.685Z,46.95
2022-09-18T08:31:36.977Z,46.97
2022-09-18T08:36:46.374Z,47.57
2022-09-18T08:42:10.617Z,47.37
2022-09-18T08:47:42.712Z,47.20
2022-09-18T08:52:52.427Z,47.17
2022-09-18T08:58:04.490Z,47.43
2022-09-18T09:03:21.770Z,47.40
2022-09-18T09:08:46.318Z,46.80
2022-09-18T09:14:39.707Z,47.63
2022-09-18T09:19:56.337Z,46.92
2022-09-18T09:25:08.221Z,47.97
2022-09-18T09:30:24.028Z,47.27
2022-09-18T09:35:35.778Z,48.10
2022-09-18T09:40:44.883Z,48.80
2022-09-18T09:45:59.279Z,48.67
2022-09-18T09:51:36.401Z,48.73
2022-09-18T09:56:48.047Z,49.13
2022-09-18T10:02:10.857Z,49.17
2022-09-18T10:07:29.185Z,49.53
2022-09-18T10:12:55.332Z,47.97
2022-09-18T10:18:03.618Z,48.17
2022-09-18T10:23:16.130Z,48.63
2022-09-18T10:28:23.713Z,48.87
2022-09-18T10:33:38.628Z,49.70
2022-09-18T10:38:48.058Z,49.80
2022-09-18T10:49:06.696Z,49.77
2022-09-18T10:54:22.107Z,49.60
2022-09-18T10:59:35.328Z,50.60
2022-09-18T11:04:40.466Z,50.13
2022-09-18T11:09:49.000Z,49.70
2022-09-18T11:15:05.275Z,50.27
2022-09-18T11:20:13.888Z,49.77
2022-09-18T11:25:26.644Z,49.40
2022-09-18T11:30:35.066Z,50.57
2022-09-18T11:35:49.520Z,49.93
2022-09-18T11:41:00.518Z,50.30
2022-09-18T11:46:25.819Z,50.80
2022-09-18T11:51:49.045Z,50.20
2022-09-18T11:57:03.462Z,50.13
2022-09-18T12:02:17.506Z,49.43
2022-09-18T12:07:42.006Z,52.08
2022-09-18T12:12:50.948Z,51.13
2022-09-18T12:17:59.560Z,50.77
2022-09-18T12:23:04.840Z,50.20
2022-09-18T12:28:29.866Z,49.53
2022-09-18T12:33:38.596Z,49.53
2022-09-18T12:39:12.919Z,50.43
2022-09-18T12:44:37.377Z,50.20
2022-09-18T12:49:50.965Z,50.30
2022-09-18T12:55:25.622Z,50.13
2022-09-18T13:00:31.438Z,49.77
2022-09-18T13:05:40.928Z,49.95
2022-09-18T13:10:49.245Z,49.53
2022-09-18T13:15:57.598Z,49.90
2022-09-18T13:21:06.529Z,49.93
2022-09-18T13:26:14.788Z,50.20
2022-09-18T13:31:27.885Z,49.57
2022-09-18T13:36:36.063Z,49.73
2022-09-18T13:41:47.735Z,49.67
2022-09-18T13:46:56.207Z,49.03
2022-09-18T13:52:35.862Z,49.17
2022-09-18T13:57:42.585Z,48.87
2022-09-18T14:02:49.946Z,49.03
2022-09-18T14:08:01.739Z,49.27
2022-09-18T14:13:24.954Z,49.57
2022-09-18T14:18:39.506Z,49.90
2022-09-18T14:23:48.211Z,48.96
2022-09-18T14:28:53.905Z,49.33
2022-09-18T14:34:21.180Z,49.03
2022-09-18T14:39:32.303Z,48.87
2022-09-18T14:44:40.651Z,48.73
2022-09-18T14:49:45.857Z,49.20
2022-09-18T14:54:53.652Z,49.77
2022-09-18T15:00:01.220Z,49.43
2022-09-18T15:05:12.194Z,50.17
2022-09-18T15:10:19.567Z,49.60
2022-09-18T15:15:40.395Z,49.70
2022-09-18T15:20:51.192Z,49.73
2022-09-18T15:26:04.833Z,50.70
2022-09-18T15:31:12.238Z,49.70
2022-09-18T15:36:29.613Z,49.93
2022-09-18T15:41:43.035Z,51.37
2022-09-18T15:46:48.282Z,49.67
2022-09-18T15:51:54.150Z,49.10
2022-09-18T15:57:04.290Z,49.40
2022-09-18T16:02:26.670Z,49.17
2022-09-18T16:07:31.882Z,48.67
2022-09-18T16:12:40.221Z,49.23
2022-09-18T16:17:51.209Z,48.73
2022-09-18T16:23:05.888Z,49.07
2022-09-18T16:28:25.927Z,48.83
2022-09-18T16:33:34.638Z,49.75
2022-09-18T16:38:39.864Z,49.43
2022-09-18T16:43:45.264Z,49.67
2022-09-18T16:48:51.315Z,49.47
2022-09-18T16:53:56.161Z,49.07
2022-09-18T16:59:03.737Z,49.03
2022-09-18T17:04:10.151Z,49.47
2022-09-18T17:09:15.681Z,48.78
2022-09-18T17:14:24.116Z,49.30
2022-09-18T17:19:31.250Z,48.77
2022-09-18T17:24:38.302Z,48.03
2022-09-18T17:29:44.394Z,47.53
2022-09-18T17:34:49.265Z,47.57
2022-09-18T17:39:56.829Z,48.43
2022-09-18T17:45:02.041Z,46.83
2022-09-18T17:50:08.465Z,47.30
2022-09-18T17:55:15.604Z,46.74
2022-09-18T18:00:22.035Z,46.88
2022-09-18T18:05:27.849Z,46.37
2022-09-18T18:10:34.625Z,46.57
2022-09-18T18:15:40.407Z,46.77
2022-09-18T18:20:52.125Z,47.47
2022-09-18T18:25:57.576Z,47.20
2022-09-18T18:31:08.435Z,46.87
2022-09-18T18:36:20.708Z,45.43
2022-09-18T18:41:29.001Z,46.35
2022-09-18T18:46:38.249Z,45.73
2022-09-18T18:51:48.057Z,46.53
2022-09-18T18:56:52.969Z,45.80
2022-09-18T19:01:59.790Z,45.60
2022-09-18T19:07:06.583Z,33.45
2022-09-18T19:12:13.304Z,45.70
2022-09-18T19:17:19.840Z,46.03
2022-09-18T19:22:26.545Z,45.83
2022-09-18T19:27:33.109Z,46.17
2022-09-18T19:32:41.605Z,46.15
2022-09-18T19:37:49.270Z,46.13
2022-09-18T19:42:58.763Z,45.27
2022-09-18T19:48:08.821Z,46.10
2022-09-18T19:53:15.388Z,45.43
2022-09-18T19:58:21.910Z,45.65
2022-09-18T20:03:27.518Z,45.55
2022-09-18T20:08:32.593Z,45.90
2022-09-18T20:13:37.849Z,45.47
2022-09-18T20:18:44.467Z,45.03
2022-09-18T20:23:50.203Z,45.17
2022-09-18T20:28:55.513Z,45.77
2022-09-18T20:34:03.092Z,46.33
2022-09-18T20:44:12.260Z,46.07
2022-09-18T20:49:18.564Z,45.17
2022-09-18T20:54:24.866Z,45.57
2022-09-18T21:04:34.671Z,45.28
2022-09-18T21:09:40.015Z,45.40
2022-09-18T21:14:45.177Z,45.87
2022-09-18T21:19:50.476Z,45.57
2022-09-18T21:24:55.538Z,45.63
2022-09-18T21:30:00.741Z,45.03
2022-09-18T21:35:06.469Z,45.23
2022-09-18T21:40:12.836Z,45.43
2022-09-18T21:45:19.989Z,46.10
2022-09-18T21:50:25.842Z,46.13
2022-09-18T21:55:32.368Z,46.00
2022-09-18T22:00:38.664Z,45.77
2022-09-18T22:05:43.603Z,45.67
2022-09-18T22:10:50.142Z,46.17
2022-09-18T22:15:56.931Z,45.60
2022-09-18T22:21:01.802Z,45.55
2022-09-18T22:26:07.166Z,45.80
2022-09-18T22:31:13.318Z,45.90
2022-09-18T22:36:18.716Z,45.63
2022-09-18T22:41:24.112Z,45.77
2022-09-18T22:46:30.306Z,45.63
2022-09-18T22:51:36.440Z,46.88
2022-09-18T22:56:45.434Z,45.20
2022-09-18T23:01:56.517Z,45.30
2022-09-18T23:07:02.425Z,46.43
2022-09-18T23:12:08.817Z,45.63
2022-09-18T23:17:14.146Z,45.80
2022-09-18T23:22:19.023Z,46.17
2022-09-18T23:27:24.186Z,45.60
2022-09-18T23:32:29.282Z,46.60
2022-09-18T23:37:34.253Z,46.07
2022-09-18T23:42:40.057Z,45.90
2022-09-18T23:47:44.877Z,46.97
2022-09-18T23:52:49.842Z,46.23
2022-09-18T23:57:54.664Z,45.90
